sensor_id;sensor_type;location;lat;lon;timestamp;pressure;altitude;pressure_sealevel;temperature;humidity
64614;BME280;51025;37.772;-122.432;2023-11-19T00:01:57;100991.87;;;22.30;33.12
64614;BME280;51025;37.772;-122.432;2023-11-19T00:04:25;100993.98;;;22.02;33.41
64614;BME280;51025;37.772;-122.432;2023-11-19T00:06:53;100993.46;;;22.39;33.67
64614;BME280;51025;37.772;-122.432;2023-11-19T00:09:21;100995.54;;;21.81;33.33
64614;BME280;51025;37.772;-122.432;2023-11-19T00:11:51;101000.28;;;22.28;33.07
64614;BME280;51025;37.772;-122.432;2023-11-19T00:14:19;100999.97;;;22.18;32.76
64614;BME280;51025;37.772;-122.432;2023-11-19T00:16:47;101002.24;;;22.11;32.84
64614;BME280;51025;37.772;-122.432;2023-11-19T00:19:15;101005.00;;;22.46;32.49
64614;BME280;51025;37.772;-122.432;2023-11-19T00:21:43;101004.92;;;22.85;32.82
64614;BME280;51025;37.772;-122.432;2023-11-19T00:24:11;101008.74;;;23.30;32.56
64614;BME280;51025;37.772;-122.432;2023-11-19T00:26:39;101005.97;;;22.58;32.68
64614;BME280;51025;37.772;-122.432;2023-11-19T00:29:07;100992.62;;;21.65;32.46
64614;BME280;51025;37.772;-122.432;2023-11-19T00:31:36;100996.63;;;22.70;32.55
64614;BME280;51025;37.772;-122.432;2023-11-19T00:34:05;101016.44;;;21.62;32.43
64614;BME280;51025;37.772;-122.432;2023-11-19T00:36:33;101010.78;;;22.74;32.44
64614;BME280;51025;37.772;-122.432;2023-11-19T00:39:02;101016.93;;;22.14;32.29
64614;BME280;51025;37.772;-122.432;2023-11-19T00:41:30;101023.42;;;22.47;32.88
64614;BME280;51025;37.772;-122.432;2023-11-19T00:43:59;101023.30;;;22.00;32.89
64614;BME280;51025;37.772;-122.432;2023-11-19T00:46:27;101028.86;;;21.90;33.06
64614;BME280;51025;37.772;-122.432;2023-11-19T00:48:55;101029.60;;;22.71;32.63
64614;BME280;51025;37.772;-122.432;2023-11-19T00:51:24;101035.69;;;22.22;32.79
64614;BME280;51025;37.772;-122.432;2023-11-19T00:53:53;101036.68;;;22.43;32.55
64614;BME280;51025;37.772;-122.432;2023-11-19T00:56:21;101031.14;;;22.90;32.06
64614;BME280;51025;37.772;-122.432;2023-11-19T00:58:49;101030.06;;;22.17;32.76
64614;BME280;51025;37.772;-122.432;2023-11-19T01:01:17;101033.73;;;22.41;32.54
64614;BME280;51025;37.772;-122.432;2023-11-19T01:03:45;101026.69;;;23.02;31.89
64614;BME280;51025;37.772;-122.432;2023-11-19T01:06:13;101035.61;;;22.10;32.04
64614;BME280;51025;37.772;-122.432;2023-11-19T01:08:43;101039.28;;;23.34;31.56
64614;BME280;51025;37.772;-122.432;2023-11-19T01:11:20;101043.68;;;21.92;32.20
64614;BME280;51025;37.772;-122.432;2023-11-19T01:13:49;101048.82;;;23.29;31.69
64614;BME280;51025;37.772;-122.432;2023-11-19T01:16:18;101056.68;;;22.49;32.01
64614;BME280;51025;37.772;-122.432;2023-11-19T01:18:47;101056.94;;;22.96;31.98
64614;BME280;51025;37.772;-122.432;2023-11-19T01:21:16;101059.56;;;22.92;32.31
64614;BME280;51025;37.772;-122.432;2023-11-19T01:23:44;101058.89;;;22.98;32.00
64614;BME280;51025;37.772;-122.432;2023-11-19T01:26:12;101066.00;;;22.24;31.92
64614;BME280;51025;37.772;-122.432;2023-11-19T01:28:41;101066.24;;;23.01;31.94
64614;BME280;51025;37.772;-122.432;2023-11-19T01:31:09;101061.90;;;22.42;31.77
64614;BME280;51025;37.772;-122.432;2023-11-19T01:33:37;101066.48;;;23.70;31.60
64614;BME280;51025;37.772;-122.432;2023-11-19T01:36:07;101076.79;;;22.49;31.66
64614;BME280;51025;37.772;-122.432;2023-11-19T01:38:36;101085.12;;;23.02;31.87
64614;BME280;51025;37.772;-122.432;2023-11-19T01:41:05;101086.37;;;22.18;31.94
64614;BME280;51025;37.772;-122.432;2023-11-19T01:43:34;101088.80;;;22.78;31.75
64614;BME280;51025;37.772;-122.432;2023-11-19T01:46:04;101083.78;;;23.15;31.35
64614;BME280;51025;37.772;-122.432;2023-11-19T01:48:34;101074.35;;;23.05;31.82
64614;BME280;51025;37.772;-122.432;2023-11-19T01:51:04;101082.43;;;22.65;31.47
64614;BME280;51025;37.772;-122.432;2023-11-19T01:53:34;101083.08;;;23.44;31.45
64614;BME280;51025;37.772;-122.432;2023-11-19T01:56:04;101083.00;;;22.21;31.91
64614;BME280;51025;37.772;-122.432;2023-11-19T01:58:34;101086.43;;;23.24;31.70
64614;BME280;51025;37.772;-122.432;2023-11-19T02:01:03;101092.63;;;22.93;31.22
64614;BME280;51025;37.772;-122.432;2023-11-19T02:03:32;101096.77;;;23.38;31.54
64614;BME280;51025;37.772;-122.432;2023-11-19T02:06:02;101092.01;;;23.10;31.35
64614;BME280;51025;37.772;-122.432;2023-11-19T02:08:31;101100.74;;;23.71;31.19
64614;BME280;51025;37.772;-122.432;2023-11-19T02:10:59;101104.74;;;23.21;31.64
64614;BME280;51025;37.772;-122.432;2023-11-19T02:13:27;101108.73;;;22.96;31.47
64614;BME280;51025;37.772;-122.432;2023-11-19T02:15:56;101112.42;;;23.71;31.20
64614;BME280;51025;37.772;-122.432;2023-11-19T02:18:26;101113.22;;;23.58;31.26
64614;BME280;51025;37.772;-122.432;2023-11-19T02:20:56;101116.67;;;23.28;31.88
64614;BME280;51025;37.772;-122.432;2023-11-19T02:23:26;101127.96;;;22.94;31.49
64614;BME280;51025;37.772;-122.432;2023-11-19T02:26:05;101136.27;;;23.96;31.24
64614;BME280;51025;37.772;-122.432;2023-11-19T02:28:38;101132.79;;;23.09;31.31
64614;BME280;51025;37.772;-122.432;2023-11-19T02:31:06;101135.98;;;23.39;31.40
64614;BME280;51025;37.772;-122.432;2023-11-19T02:33:35;101138.82;;;23.20;31.58
64614;BME280;51025;37.772;-122.432;2023-11-19T02:36:04;101142.23;;;22.85;31.18
64614;BME280;51025;37.772;-122.432;2023-11-19T02:38:33;101143.83;;;22.55;31.43
64614;BME280;51025;37.772;-122.432;2023-11-19T02:41:04;101150.19;;;23.69;31.10
64614;BME280;51025;37.772;-122.432;2023-11-19T02:43:33;101155.21;;;23.66;31.12
64614;BME280;51025;37.772;-122.432;2023-11-19T02:46:03;101157.92;;;22.59;31.72
64614;BME280;51025;37.772;-122.432;2023-11-19T02:48:31;101158.74;;;22.85;31.81
64614;BME280;51025;37.772;-122.432;2023-11-19T02:51:00;101158.45;;;22.48;31.45
64614;BME280;51025;37.772;-122.432;2023-11-19T02:53:29;101165.36;;;22.94;31.75
64614;BME280;51025;37.772;-122.432;2023-11-19T02:55:57;101171.19;;;23.10;31.56
64614;BME280;51025;37.772;-122.432;2023-11-19T02:58:26;101181.75;;;22.23;31.67
64614;BME280;51025;37.772;-122.432;2023-11-19T03:00:54;101177.58;;;23.01;31.64
64614;BME280;51025;37.772;-122.432;2023-11-19T03:03:22;101187.90;;;22.43;31.75
64614;BME280;51025;37.772;-122.432;2023-11-19T03:05:51;101188.88;;;23.61;31.06
64614;BME280;51025;37.772;-122.432;2023-11-19T03:08:20;101201.35;;;22.60;31.30
64614;BME280;51025;37.772;-122.432;2023-11-19T03:10:48;101209.65;;;23.31;31.36
64614;BME280;51025;37.772;-122.432;2023-11-19T03:13:16;101201.72;;;22.63;31.36
64614;BME280;51025;37.772;-122.432;2023-11-19T03:15:43;101206.87;;;23.69;31.44
64614;BME280;51025;37.772;-122.432;2023-11-19T03:18:12;101207.92;;;22.67;31.31
64614;BME280;51025;37.772;-122.432;2023-11-19T03:20:39;101209.91;;;22.93;31.39
64614;BME280;51025;37.772;-122.432;2023-11-19T03:23:07;101215.81;;;22.99;31.67
64614;BME280;51025;37.772;-122.432;2023-11-19T03:25:36;101223.18;;;23.04;31.60
64614;BME280;51025;37.772;-122.432;2023-11-19T03:28:04;101229.38;;;23.00;31.64
64614;BME280;51025;37.772;-122.432;2023-11-19T03:30:33;101237.63;;;23.02;31.57
64614;BME280;51025;37.772;-122.432;2023-11-19T03:33:01;101243.17;;;22.17;31.59
64614;BME280;51025;37.772;-122.432;2023-11-19T03:35:30;101238.70;;;23.09;31.39
64614;BME280;51025;37.772;-122.432;2023-11-19T03:37:59;101244.86;;;22.95;31.45
64614;BME280;51025;37.772;-122.432;2023-11-19T03:40:27;101252.31;;;22.63;31.75
64614;BME280;51025;37.772;-122.432;2023-11-19T03:42:57;101253.10;;;23.21;31.49
64614;BME280;51025;37.772;-122.432;2023-11-19T03:45:26;101266.36;;;22.87;31.38
64614;BME280;51025;37.772;-122.432;2023-11-19T03:47:54;101273.04;;;22.64;31.63
64614;BME280;51025;37.772;-122.432;2023-11-19T03:50:22;101270.39;;;22.98;31.59
64614;BME280;51025;37.772;-122.432;2023-11-19T03:52:50;101264.96;;;23.33;31.64
64614;BME280;51025;37.772;-122.432;2023-11-19T03:55:18;101276.21;;;22.66;31.48
64614;BME280;51025;37.772;-122.432;2023-11-19T03:57:45;101278.38;;;22.74;31.35
64614;BME280;51025;37.772;-122.432;2023-11-19T04:00:14;101280.06;;;21.76;31.16
64614;BME280;51025;37.772;-122.432;2023-11-19T04:02:43;101285.77;;;22.45;31.54
64614;BME280;51025;37.772;-122.432;2023-11-19T04:05:11;101299.61;;;22.39;31.57
64614;BME280;51025;37.772;-122.432;2023-11-19T04:07:39;101299.84;;;23.18;31.51
64614;BME280;51025;37.772;-122.432;2023-11-19T04:10:08;101296.60;;;22.88;31.78
64614;BME280;51025;37.772;-122.432;2023-11-19T04:12:36;101294.94;;;22.40;31.83
64614;BME280;51025;37.772;-122.432;2023-11-19T04:15:06;101288.31;;;21.97;31.90
64614;BME280;51025;37.772;-122.432;2023-11-19T04:17:35;101301.06;;;22.67;31.57
64614;BME280;51025;37.772;-122.432;2023-11-19T04:20:04;101295.31;;;21.81;31.63
64614;BME280;51025;37.772;-122.432;2023-11-19T04:22:33;101310.29;;;22.60;31.27
64614;BME280;51025;37.772;-122.432;2023-11-19T04:25:01;101354.87;;;22.42;31.42
64614;BME280;51025;37.772;-122.432;2023-11-19T04:27:29;101369.76;;;22.27;31.55
64614;BME280;51025;37.772;-122.432;2023-11-19T04:29:58;101367.53;;;23.02;31.14
64614;BME280;51025;37.772;-122.432;2023-11-19T04:32:26;101373.44;;;22.22;31.51
64614;BME280;51025;37.772;-122.432;2023-11-19T04:34:54;101377.30;;;22.25;31.38
64614;BME280;51025;37.772;-122.432;2023-11-19T04:37:23;101387.52;;;21.90;31.64
64614;BME280;51025;37.772;-122.432;2023-11-19T04:39:51;101392.61;;;22.59;31.33
64614;BME280;51025;37.772;-122.432;2023-11-19T04:42:20;101400.96;;;21.34;31.28
64614;BME280;51025;37.772;-122.432;2023-11-19T04:44:50;101412.09;;;22.41;31.28
64614;BME280;51025;37.772;-122.432;2023-11-19T04:47:18;101421.33;;;21.65;31.13
64614;BME280;51025;37.772;-122.432;2023-11-19T04:49:46;101422.90;;;21.92;31.54
64614;BME280;51025;37.772;-122.432;2023-11-19T04:52:14;101427.67;;;21.63;31.38
64614;BME280;51025;37.772;-122.432;2023-11-19T04:54:42;101435.01;;;21.74;31.23
64614;BME280;51025;37.772;-122.432;2023-11-19T04:57:11;101444.18;;;21.08;31.07
64614;BME280;51025;37.772;-122.432;2023-11-19T04:59:40;101451.28;;;21.87;30.97
64614;BME280;51025;37.772;-122.432;2023-11-19T05:02:09;101458.66;;;21.20;30.92
64614;BME280;51025;37.772;-122.432;2023-11-19T05:04:41;101465.96;;;22.29;30.91
64614;BME280;51025;37.772;-122.432;2023-11-19T05:07:10;101465.75;;;22.54;31.00
64614;BME280;51025;37.772;-122.432;2023-11-19T05:09:38;101460.93;;;22.52;30.98
64614;BME280;51025;37.772;-122.432;2023-11-19T05:12:11;101460.11;;;21.10;30.71
64614;BME280;51025;37.772;-122.432;2023-11-19T05:14:39;101464.04;;;21.90;30.95
64614;BME280;51025;37.772;-122.432;2023-11-19T05:17:07;101473.33;;;20.90;30.84
64614;BME280;51025;37.772;-122.432;2023-11-19T05:19:36;101474.16;;;21.80;30.66
64614;BME280;51025;37.772;-122.432;2023-11-19T05:22:04;101474.63;;;21.76;30.63
64614;BME280;51025;37.772;-122.432;2023-11-19T05:24:32;101476.90;;;22.06;31.02
64614;BME280;51025;37.772;-122.432;2023-11-19T05:27:01;101482.05;;;21.31;30.87
64614;BME280;51025;37.772;-122.432;2023-11-19T05:29:29;101482.30;;;22.02;30.90
64614;BME280;51025;37.772;-122.432;2023-11-19T05:31:58;101487.05;;;21.55;30.96
64614;BME280;51025;37.772;-122.432;2023-11-19T05:34:28;101494.13;;;21.55;30.63
64614;BME280;51025;37.772;-122.432;2023-11-19T05:36:57;101500.66;;;21.78;30.67
64614;BME280;51025;37.772;-122.432;2023-11-19T05:39:25;101515.22;;;22.10;30.71
64614;BME280;51025;37.772;-122.432;2023-11-19T05:41:54;101521.35;;;21.70;30.70
64614;BME280;51025;37.772;-122.432;2023-11-19T05:44:22;101536.61;;;21.66;30.64
64614;BME280;51025;37.772;-122.432;2023-11-19T05:46:50;101551.07;;;22.10;30.59
64614;BME280;51025;37.772;-122.432;2023-11-19T05:49:18;101560.40;;;21.31;30.92
64614;BME280;51025;37.772;-122.432;2023-11-19T05:51:46;101567.38;;;21.80;30.40
64614;BME280;51025;37.772;-122.432;2023-11-19T05:54:15;101572.42;;;20.99;30.65
64614;BME280;51025;37.772;-122.432;2023-11-19T05:56:48;101575.36;;;21.37;30.59
64614;BME280;51025;37.772;-122.432;2023-11-19T05:59:16;101581.18;;;20.77;30.35
64614;BME280;51025;37.772;-122.432;2023-11-19T06:01:45;101586.58;;;21.89;30.39
64614;BME280;51025;37.772;-122.432;2023-11-19T06:04:24;101593.39;;;21.77;30.37
64614;BME280;51025;37.772;-122.432;2023-11-19T06:06:53;101597.57;;;21.93;30.42
64614;BME280;51025;37.772;-122.432;2023-11-19T06:09:21;101600.95;;;20.89;30.26
64614;BME280;51025;37.772;-122.432;2023-11-19T06:11:49;101604.35;;;21.78;30.06
64614;BME280;51025;37.772;-122.432;2023-11-19T06:14:17;101609.38;;;20.81;30.14
64614;BME280;51025;37.772;-122.432;2023-11-19T06:16:46;101622.66;;;21.60;30.13
64614;BME280;51025;37.772;-122.432;2023-11-19T06:19:14;101625.10;;;21.67;29.82
64614;BME280;51025;37.772;-122.432;2023-11-19T06:21:43;101634.85;;;21.38;29.94
64614;BME280;51025;37.772;-122.432;2023-11-19T06:24:11;101643.54;;;20.54;29.79
64614;BME280;51025;37.772;-122.432;2023-11-19T06:26:40;101647.97;;;21.22;29.71
64614;BME280;51025;37.772;-122.432;2023-11-19T06:29:08;101644.93;;;20.71;29.54
64614;BME280;51025;37.772;-122.432;2023-11-19T06:31:36;101652.37;;;21.74;29.19
64614;BME280;51025;37.772;-122.432;2023-11-19T06:34:08;101654.14;;;21.35;29.43
64614;BME280;51025;37.772;-122.432;2023-11-19T06:36:36;101648.58;;;21.72;29.23
64614;BME280;51025;37.772;-122.432;2023-11-19T06:39:05;101661.39;;;21.36;29.47
64614;BME280;51025;37.772;-122.432;2023-11-19T06:41:33;101668.84;;;21.48;28.97
64614;BME280;51025;37.772;-122.432;2023-11-19T06:44:02;101670.88;;;20.58;29.22
64614;BME280;51025;37.772;-122.432;2023-11-19T06:46:30;101674.96;;;20.97;29.17
64614;BME280;51025;37.772;-122.432;2023-11-19T06:48:59;101681.65;;;21.20;28.81
64614;BME280;51025;37.772;-122.432;2023-11-19T06:51:27;101682.06;;;21.19;28.78
64614;BME280;51025;37.772;-122.432;2023-11-19T06:53:55;101687.96;;;21.08;28.79
64614;BME280;51025;37.772;-122.432;2023-11-19T06:56:25;101690.64;;;20.90;28.94
64614;BME280;51025;37.772;-122.432;2023-11-19T06:58:53;101696.83;;;20.96;28.78
64614;BME280;51025;37.772;-122.432;2023-11-19T07:01:22;101701.62;;;20.44;28.74
64614;BME280;51025;37.772;-122.432;2023-11-19T07:03:50;101709.15;;;21.29;28.58
64614;BME280;51025;37.772;-122.432;2023-11-19T07:06:20;101718.69;;;20.30;28.38
64614;BME280;51025;37.772;-122.432;2023-11-19T07:08:49;101725.76;;;21.02;28.41
64614;BME280;51025;37.772;-122.432;2023-11-19T07:11:17;101731.75;;;20.86;28.59
64614;BME280;51025;37.772;-122.432;2023-11-19T07:13:45;101733.25;;;20.92;28.44
64614;BME280;51025;37.772;-122.432;2023-11-19T07:16:15;101740.20;;;21.09;28.28
64614;BME280;51025;37.772;-122.432;2023-11-19T07:18:43;101744.39;;;21.18;28.47
64614;BME280;51025;37.772;-122.432;2023-11-19T07:21:12;101743.48;;;20.39;28.81
64614;BME280;51025;37.772;-122.432;2023-11-19T07:23:40;101743.60;;;20.80;28.61
64614;BME280;51025;37.772;-122.432;2023-11-19T07:26:09;101748.07;;;19.98;28.35
64614;BME280;51025;37.772;-122.432;2023-11-19T07:28:37;101751.04;;;20.46;28.51
64614;BME280;51025;37.772;-122.432;2023-11-19T07:31:06;101751.28;;;20.03;28.33
64614;BME280;51025;37.772;-122.432;2023-11-19T07:33:34;101759.53;;;20.76;28.21
64614;BME280;51025;37.772;-122.432;2023-11-19T07:36:03;101763.11;;;20.61;28.36
64614;BME280;51025;37.772;-122.432;2023-11-19T07:38:31;101767.34;;;20.44;28.75
64614;BME280;51025;37.772;-122.432;2023-11-19T07:41:00;101773.04;;;20.25;28.57
64614;BME280;51025;37.772;-122.432;2023-11-19T07:43:28;101777.25;;;20.51;28.34
64614;BME280;51025;37.772;-122.432;2023-11-19T07:45:57;101787.68;;;20.47;28.34
64614;BME280;51025;37.772;-122.432;2023-11-19T07:48:26;101798.04;;;19.67;28.41
64614;BME280;51025;37.772;-122.432;2023-11-19T07:50:54;101802.91;;;20.42;28.44
64614;BME280;51025;37.772;-122.432;2023-11-19T07:53:23;101813.24;;;20.41;28.33
64614;BME280;51025;37.772;-122.432;2023-11-19T07:55:50;101814.30;;;20.68;28.40
64614;BME280;51025;37.772;-122.432;2023-11-19T07:58:19;101808.83;;;19.87;28.46
64614;BME280;51025;37.772;-122.432;2023-11-19T08:00:47;101807.45;;;19.29;28.67
64614;BME280;51025;37.772;-122.432;2023-11-19T08:03:15;101803.71;;;20.49;28.33
64614;BME280;51025;37.772;-122.432;2023-11-19T08:05:44;101805.64;;;20.39;28.31
64614;BME280;51025;37.772;-122.432;2023-11-19T08:08:13;101808.22;;;21.16;28.33
64614;BME280;51025;37.772;-122.432;2023-11-19T08:10:42;101812.01;;;20.48;28.48
64614;BME280;51025;37.772;-122.432;2023-11-19T08:13:10;101812.36;;;20.22;28.37
64614;BME280;51025;37.772;-122.432;2023-11-19T08:15:39;101811.53;;;20.38;28.32
64614;BME280;51025;37.772;-122.432;2023-11-19T08:18:07;101802.17;;;20.06;28.49
64614;BME280;51025;37.772;-122.432;2023-11-19T08:20:35;101807.11;;;21.01;28.09
64614;BME280;51025;37.772;-122.432;2023-11-19T08:23:03;101814.32;;;19.42;28.32
64614;BME280;51025;37.772;-122.432;2023-11-19T08:25:32;101812.20;;;20.01;28.40
64614;BME280;51025;37.772;-122.432;2023-11-19T08:28:00;101812.63;;;19.29;28.71
64614;BME280;51025;37.772;-122.432;2023-11-19T08:30:29;101811.28;;;20.20;28.56
64614;BME280;51025;37.772;-122.432;2023-11-19T08:32:57;101812.57;;;19.88;28.44
64614;BME280;51025;37.772;-122.432;2023-11-19T08:35:25;101815.43;;;20.34;28.37
64614;BME280;51025;37.772;-122.432;2023-11-19T08:37:54;101816.14;;;20.30;28.24
64614;BME280;51025;37.772;-122.432;2023-11-19T08:40:22;101825.29;;;20.50;28.41
64614;BME280;51025;37.772;-122.432;2023-11-19T08:42:50;101822.17;;;20.24;28.38
64614;BME280;51025;37.772;-122.432;2023-11-19T08:45:18;101830.25;;;20.54;28.47
64614;BME280;51025;37.772;-122.432;2023-11-19T08:47:46;101836.25;;;20.51;28.48
64614;BME280;51025;37.772;-122.432;2023-11-19T08:50:14;101836.82;;;19.68;28.58
64614;BME280;51025;37.772;-122.432;2023-11-19T08:52:42;101844.98;;;20.59;28.51
64614;BME280;51025;37.772;-122.432;2023-11-19T08:55:11;101845.56;;;19.72;28.51
64614;BME280;51025;37.772;-122.432;2023-11-19T08:57:39;101846.17;;;20.36;28.57
64614;BME280;51025;37.772;-122.432;2023-11-19T09:00:08;101849.04;;;19.68;28.55
64614;BME280;51025;37.772;-122.432;2023-11-19T09:02:37;101849.74;;;19.55;28.67
64614;BME280;51025;37.772;-122.432;2023-11-19T09:05:06;101851.71;;;19.61;28.64
64614;BME280;51025;37.772;-122.432;2023-11-19T09:07:34;101853.44;;;19.54;28.62
64614;BME280;51025;37.772;-122.432;2023-11-19T09:10:04;101853.60;;;18.94;28.52
64614;BME280;51025;37.772;-122.432;2023-11-19T09:12:32;101854.12;;;19.63;28.52
64614;BME280;51025;37.772;-122.432;2023-11-19T09:15:00;101855.10;;;19.47;28.61
64614;BME280;51025;37.772;-122.432;2023-11-19T09:17:28;101859.21;;;20.11;28.70
64614;BME280;51025;37.772;-122.432;2023-11-19T09:19:57;101857.83;;;19.39;28.65
64614;BME280;51025;37.772;-122.432;2023-11-19T09:22:25;101866.08;;;20.38;28.40
64614;BME280;51025;37.772;-122.432;2023-11-19T09:24:54;101863.18;;;19.58;28.47
64614;BME280;51025;37.772;-122.432;2023-11-19T09:27:22;101863.68;;;19.50;28.48
64614;BME280;51025;37.772;-122.432;2023-11-19T09:29:51;101864.11;;;20.22;28.42
64614;BME280;51025;37.772;-122.432;2023-11-19T09:32:19;101869.35;;;20.15;28.45
64614;BME280;51025;37.772;-122.432;2023-11-19T09:34:47;101868.42;;;20.09;28.44
64614;BME280;51025;37.772;-122.432;2023-11-19T09:37:16;101867.92;;;19.71;28.43
64614;BME280;51025;37.772;-122.432;2023-11-19T09:39:44;101865.82;;;20.46;28.33
64614;BME280;51025;37.772;-122.432;2023-11-19T09:42:13;101868.65;;;19.17;28.44
64614;BME280;51025;37.772;-122.432;2023-11-19T09:44:43;101879.51;;;20.59;28.17
64614;BME280;51025;37.772;-122.432;2023-11-19T09:47:14;101881.66;;;19.53;28.02
64614;BME280;51025;37.772;-122.432;2023-11-19T09:49:42;101887.84;;;20.26;28.05
64614;BME280;51025;37.772;-122.432;2023-11-19T09:52:11;101893.21;;;20.66;27.89
64614;BME280;51025;37.772;-122.432;2023-11-19T09:54:40;101899.35;;;19.50;28.10
64614;BME280;51025;37.772;-122.432;2023-11-19T09:57:08;101904.09;;;19.36;28.18
64614;BME280;51025;37.772;-122.432;2023-11-19T09:59:37;101917.12;;;19.96;27.99
64614;BME280;51025;37.772;-122.432;2023-11-19T10:02:07;101920.12;;;19.68;27.69
64614;BME280;51025;37.772;-122.432;2023-11-19T10:04:36;101919.49;;;19.94;27.94
64614;BME280;51025;37.772;-122.432;2023-11-19T10:07:05;101917.59;;;18.54;28.06
64614;BME280;51025;37.772;-122.432;2023-11-19T10:09:34;101919.45;;;19.96;27.88
64614;BME280;51025;37.772;-122.432;2023-11-19T10:12:02;101917.13;;;19.29;27.83
64614;BME280;51025;37.772;-122.432;2023-11-19T10:14:32;101915.80;;;20.34;27.79
64614;BME280;51025;37.772;-122.432;2023-11-19T10:17:02;101914.30;;;20.03;28.05
64614;BME280;51025;37.772;-122.432;2023-11-19T10:19:30;101911.66;;;19.98;28.05
64614;BME280;51025;37.772;-122.432;2023-11-19T10:22:04;101907.12;;;18.49;27.98
64614;BME280;51025;37.772;-122.432;2023-11-19T10:24:33;101913.26;;;19.27;27.97
64614;BME280;51025;37.772;-122.432;2023-11-19T10:27:02;101919.04;;;19.19;27.70
64614;BME280;51025;37.772;-122.432;2023-11-19T10:29:31;101924.14;;;19.78;27.74
64614;BME280;51025;37.772;-122.432;2023-11-19T10:32:00;101931.05;;;18.55;27.82
64614;BME280;51025;37.772;-122.432;2023-11-19T10:34:28;101942.81;;;19.66;27.76
64614;BME280;51025;37.772;-122.432;2023-11-19T10:36:56;101944.17;;;18.92;27.77
64614;BME280;51025;37.772;-122.432;2023-11-19T10:39:32;101942.81;;;19.69;27.47
64614;BME280;51025;37.772;-122.432;2023-11-19T10:42:19;101953.96;;;19.66;27.73
64614;BME280;51025;37.772;-122.432;2023-11-19T10:44:47;101958.77;;;19.51;27.81
64614;BME280;51025;37.772;-122.432;2023-11-19T10:47:15;101963.48;;;19.50;27.85
64614;BME280;51025;37.772;-122.432;2023-11-19T10:49:46;101964.78;;;19.55;27.75
64614;BME280;51025;37.772;-122.432;2023-11-19T10:52:18;101968.67;;;19.47;27.81
64614;BME280;51025;37.772;-122.432;2023-11-19T10:54:50;101969.85;;;19.74;27.93
64614;BME280;51025;37.772;-122.432;2023-11-19T10:57:21;101966.64;;;19.58;27.72
64614;BME280;51025;37.772;-122.432;2023-11-19T10:59:55;101961.09;;;20.14;27.83
64614;BME280;51025;37.772;-122.432;2023-11-19T11:02:26;101959.48;;;19.52;27.76
64614;BME280;51025;37.772;-122.432;2023-11-19T11:04:56;101948.60;;;19.03;27.83
64614;BME280;51025;37.772;-122.432;2023-11-19T11:07:25;101942.61;;;19.54;28.04
64614;BME280;51025;37.772;-122.432;2023-11-19T11:09:54;101931.37;;;19.19;27.93
64614;BME280;51025;37.772;-122.432;2023-11-19T11:12:24;101931.55;;;19.45;28.09
64614;BME280;51025;37.772;-122.432;2023-11-19T11:14:54;101943.87;;;19.47;27.72
64614;BME280;51025;37.772;-122.432;2023-11-19T11:17:25;101958.35;;;19.06;28.02
64614;BME280;51025;37.772;-122.432;2023-11-19T11:19:55;101945.64;;;19.02;28.06
64614;BME280;51025;37.772;-122.432;2023-11-19T11:22:24;101950.61;;;19.35;28.11
64614;BME280;51025;37.772;-122.432;2023-11-19T11:25:13;101943.81;;;18.78;28.18
64614;BME280;51025;37.772;-122.432;2023-11-19T11:27:52;101952.55;;;19.09;27.97
64614;BME280;51025;37.772;-122.432;2023-11-19T11:30:31;101958.27;;;20.04;27.77
64614;BME280;51025;37.772;-122.432;2023-11-19T11:33:12;101960.13;;;18.43;28.20
64614;BME280;51025;37.772;-122.432;2023-11-19T11:35:52;101965.53;;;19.45;28.26
64614;BME280;51025;37.772;-122.432;2023-11-19T11:38:23;101969.26;;;19.25;28.11
64614;BME280;51025;37.772;-122.432;2023-11-19T11:41:24;101978.06;;;18.76;28.17
64614;BME280;51025;37.772;-122.432;2023-11-19T11:43:54;101987.06;;;19.08;27.86
64614;BME280;51025;37.772;-122.432;2023-11-19T11:46:55;101984.40;;;19.49;27.86
64614;BME280;51025;37.772;-122.432;2023-11-19T11:49:26;101983.26;;;18.83;28.07
64614;BME280;51025;37.772;-122.432;2023-11-19T11:52:03;101989.19;;;18.28;28.22
64614;BME280;51025;37.772;-122.432;2023-11-19T11:54:33;101993.64;;;19.44;28.16
64614;BME280;51025;37.772;-122.432;2023-11-19T11:57:07;101989.90;;;18.04;28.09
64614;BME280;51025;37.772;-122.432;2023-11-19T11:59:48;101990.77;;;19.15;28.14
64614;BME280;51025;37.772;-122.432;2023-11-19T12:02:18;101995.16;;;19.60;27.73
64614;BME280;51025;37.772;-122.432;2023-11-19T12:04:51;101994.87;;;19.44;27.85
64614;BME280;51025;37.772;-122.432;2023-11-19T12:07:22;101999.67;;;18.79;28.00
64614;BME280;51025;37.772;-122.432;2023-11-19T12:09:53;102000.04;;;18.80;28.01
64614;BME280;51025;37.772;-122.432;2023-11-19T12:12:26;102003.00;;;18.76;28.05
64614;BME280;51025;37.772;-122.432;2023-11-19T12:15:07;102007.63;;;19.11;27.70
64614;BME280;51025;37.772;-122.432;2023-11-19T12:17:43;102016.87;;;19.02;27.74
64614;BME280;51025;37.772;-122.432;2023-11-19T12:20:12;102033.06;;;18.68;27.92
64614;BME280;51025;37.772;-122.432;2023-11-19T12:22:42;102042.13;;;19.44;27.94
64614;BME280;51025;37.772;-122.432;2023-11-19T12:25:11;102045.42;;;18.65;27.99
64614;BME280;51025;37.772;-122.432;2023-11-19T12:27:41;102046.53;;;19.84;27.66
64614;BME280;51025;37.772;-122.432;2023-11-19T12:30:10;102041.03;;;19.06;27.91
64614;BME280;51025;37.772;-122.432;2023-11-19T12:32:40;102035.58;;;19.05;27.90